sensor_id;sensor_type;location;lat;lon;timestamp;P1;durP1;ratioP1;P2;durP2;ratioP2
76423;SDS011;65257;52.104;4.268;2024-03-29T00:02:12;8.48;;;2.47;;
76423;SDS011;65257;52.104;4.268;2024-03-29T00:04:44;9.52;;;2.00;;
76423;SDS011;65257;52.104;4.268;2024-03-29T00:07:15;8.43;;;2.00;;
76423;SDS011;65257;52.104;4.268;2024-03-29T00:09:41;4.80;;;1.83;;
76423;SDS011;65257;52.104;4.268;2024-03-29T00:12:06;7.80;;;1.88;;
76423;SDS011;65257;52.104;4.268;2024-03-29T00:14:33;7.97;;;1.85;;
76423;SDS011;65257;52.104;4.268;2024-03-29T00:16:58;4.70;;;1.70;;
76423;SDS011;65257;52.104;4.268;2024-03-29T00:19:24;3.75;;;1.20;;
76423;SDS011;65257;52.104;4.268;2024-03-29T00:21:50;7.70;;;1.73;;
76423;SDS011;65257;52.104;4.268;2024-03-29T00:27:22;6.20;;;1.80;;
76423;SDS011;65257;52.104;4.268;2024-03-29T00:29:55;3.85;;;1.30;;
76423;SDS011;65257;52.104;4.268;2024-03-29T00:32:25;3.55;;;2.00;;
76423;SDS011;65257;52.104;4.268;2024-03-29T00:34:51;3.25;;;1.50;;
76423;SDS011;65257;52.104;4.268;2024-03-29T00:37:20;6.45;;;2.08;;
76423;SDS011;65257;52.104;4.268;2024-03-29T00:39:47;11.52;;;2.15;;
76423;SDS011;65257;52.104;4.268;2024-03-29T00:42:13;5.13;;;1.77;;
76423;SDS011;65257;52.104;4.268;2024-03-29T00:44:43;12.35;;;1.88;;
76423;SDS011;65257;52.104;4.268;2024-03-29T00:47:09;20.58;;;2.53;;
76423;SDS011;65257;52.104;4.268;2024-03-29T00:49:35;5.30;;;1.80;;
76423;SDS011;65257;52.104;4.268;2024-03-29T00:52:01;10.13;;;1.73;;
76423;SDS011;65257;52.104;4.268;2024-03-29T00:54:28;5.65;;;1.60;;
76423;SDS011;65257;52.104;4.268;2024-03-29T00:56:56;9.52;;;2.20;;
76423;SDS011;65257;52.104;4.268;2024-03-29T00:59:25;7.55;;;1.95;;
76423;SDS011;65257;52.104;4.268;2024-03-29T01:01:50;6.13;;;2.13;;
76423;SDS011;65257;52.104;4.268;2024-03-29T01:04:16;6.93;;;1.80;;
76423;SDS011;65257;52.104;4.268;2024-03-29T01:06:42;11.55;;;2.35;;
76423;SDS011;65257;52.104;4.268;2024-03-29T01:09:12;5.20;;;1.58;;
76423;SDS011;65257;52.104;4.268;2024-03-29T01:11:38;6.82;;;1.80;;
76423;SDS011;65257;52.104;4.268;2024-03-29T01:14:07;9.57;;;1.83;;
76423;SDS011;65257;52.104;4.268;2024-03-29T01:16:35;6.70;;;2.00;;
76423;SDS011;65257;52.104;4.268;2024-03-29T01:19:01;7.63;;;2.10;;
76423;SDS011;65257;52.104;4.268;2024-03-29T01:21:29;7.72;;;2.13;;
76423;SDS011;65257;52.104;4.268;2024-03-29T01:23:54;10.02;;;1.95;;
76423;SDS011;65257;52.104;4.268;2024-03-29T01:26:20;6.30;;;1.90;;
76423;SDS011;65257;52.104;4.268;2024-03-29T01:28:45;8.73;;;2.20;;
76423;SDS011;65257;52.104;4.268;2024-03-29T01:31:11;6.20;;;1.90;;
76423;SDS011;65257;52.104;4.268;2024-03-29T01:33:37;5.93;;;1.85;;
76423;SDS011;65257;52.104;4.268;2024-03-29T01:36:08;9.02;;;3.03;;
76423;SDS011;65257;52.104;4.268;2024-03-29T01:38:33;6.93;;;2.45;;
76423;SDS011;65257;52.104;4.268;2024-03-29T01:41:00;3.35;;;1.60;;
76423;SDS011;65257;52.104;4.268;2024-03-29T01:43:31;12.48;;;1.95;;
76423;SDS011;65257;52.104;4.268;2024-03-29T01:45:59;8.13;;;1.90;;
76423;SDS011;65257;52.104;4.268;2024-03-29T01:48:28;8.55;;;2.20;;
76423;SDS011;65257;52.104;4.268;2024-03-29T01:50:56;5.47;;;1.38;;
76423;SDS011;65257;52.104;4.268;2024-03-29T01:53:23;6.10;;;1.77;;
76423;SDS011;65257;52.104;4.268;2024-03-29T01:55:50;6.97;;;2.00;;
76423;SDS011;65257;52.104;4.268;2024-03-29T01:58:16;9.32;;;2.78;;
76423;SDS011;65257;52.104;4.268;2024-03-29T02:00:51;8.50;;;1.90;;
76423;SDS011;65257;52.104;4.268;2024-03-29T02:03:21;6.30;;;1.35;;
76423;SDS011;65257;52.104;4.268;2024-03-29T02:05:50;8.73;;;2.08;;
76423;SDS011;65257;52.104;4.268;2024-03-29T02:08:16;6.50;;;2.28;;
76423;SDS011;65257;52.104;4.268;2024-03-29T02:10:42;8.10;;;2.03;;
76423;SDS011;65257;52.104;4.268;2024-03-29T02:13:08;7.05;;;1.63;;
76423;SDS011;65257;52.104;4.268;2024-03-29T02:15:34;7.18;;;2.22;;
76423;SDS011;65257;52.104;4.268;2024-03-29T02:18:00;5.47;;;1.60;;
76423;SDS011;65257;52.104;4.268;2024-03-29T02:20:25;8.80;;;2.80;;
76423;SDS011;65257;52.104;4.268;2024-03-29T02:22:55;7.28;;;1.75;;
76423;SDS011;65257;52.104;4.268;2024-03-29T02:25:25;11.18;;;2.83;;
76423;SDS011;65257;52.104;4.268;2024-03-29T02:27:51;7.40;;;1.77;;
76423;SDS011;65257;52.104;4.268;2024-03-29T02:30:29;10.13;;;2.17;;
76423;SDS011;65257;52.104;4.268;2024-03-29T02:32:56;6.38;;;1.90;;
76423;SDS011;65257;52.104;4.268;2024-03-29T02:35:22;7.78;;;2.00;;
76423;SDS011;65257;52.104;4.268;2024-03-29T02:37:50;6.95;;;2.03;;
76423;SDS011;65257;52.104;4.268;2024-03-29T02:40:17;7.13;;;2.35;;
76423;SDS011;65257;52.104;4.268;2024-03-29T02:42:43;5.93;;;1.85;;
76423;SDS011;65257;52.104;4.268;2024-03-29T02:45:11;6.30;;;1.90;;
76423;SDS011;65257;52.104;4.268;2024-03-29T02:47:36;5.85;;;1.40;;
76423;SDS011;65257;52.104;4.268;2024-03-29T02:50:02;6.18;;;1.80;;
76423;SDS011;65257;52.104;4.268;2024-03-29T02:52:29;3.78;;;1.70;;
76423;SDS011;65257;52.104;4.268;2024-03-29T02:54:54;6.50;;;1.77;;
76423;SDS011;65257;52.104;4.268;2024-03-29T02:57:20;5.05;;;2.05;;
76423;SDS011;65257;52.104;4.268;2024-03-29T02:59:46;6.05;;;1.73;;
76423;SDS011;65257;52.104;4.268;2024-03-29T03:02:11;13.23;;;2.03;;
76423;SDS011;65257;52.104;4.268;2024-03-29T03:04:37;7.18;;;1.92;;
76423;SDS011;65257;52.104;4.268;2024-03-29T03:07:02;6.18;;;2.38;;
76423;SDS011;65257;52.104;4.268;2024-03-29T03:09:46;6.63;;;1.50;;
76423;SDS011;65257;52.104;4.268;2024-03-29T03:12:36;5.43;;;1.52;;
76423;SDS011;65257;52.104;4.268;2024-03-29T03:15:05;4.78;;;1.70;;
76423;SDS011;65257;52.104;4.268;2024-03-29T03:17:34;3.80;;;1.50;;
76423;SDS011;65257;52.104;4.268;2024-03-29T03:20:00;5.18;;;1.80;;
76423;SDS011;65257;52.104;4.268;2024-03-29T03:22:26;5.22;;;2.00;;
76423;SDS011;65257;52.104;4.268;2024-03-29T03:24:56;6.60;;;1.77;;
76423;SDS011;65257;52.104;4.268;2024-03-29T03:27:22;3.38;;;1.50;;
76423;SDS011;65257;52.104;4.268;2024-03-29T03:29:48;5.70;;;1.90;;
76423;SDS011;65257;52.104;4.268;2024-03-29T03:32:13;8.15;;;1.52;;
76423;SDS011;65257;52.104;4.268;2024-03-29T03:34:39;6.03;;;1.95;;
76423;SDS011;65257;52.104;4.268;2024-03-29T03:37:07;5.35;;;1.55;;
76423;SDS011;65257;52.104;4.268;2024-03-29T03:39:33;4.78;;;1.65;;
76423;SDS011;65257;52.104;4.268;2024-03-29T03:41:58;5.13;;;1.75;;
76423;SDS011;65257;52.104;4.268;2024-03-29T03:44:24;5.25;;;1.33;;
76423;SDS011;65257;52.104;4.268;2024-03-29T03:46:55;3.60;;;1.63;;
76423;SDS011;65257;52.104;4.268;2024-03-29T03:49:21;4.18;;;1.63;;
76423;SDS011;65257;52.104;4.268;2024-03-29T03:51:46;4.28;;;1.48;;
76423;SDS011;65257;52.104;4.268;2024-03-29T03:54:15;3.20;;;1.58;;
76423;SDS011;65257;52.104;4.268;2024-03-29T03:56:40;3.15;;;1.40;;
76423;SDS011;65257;52.104;4.268;2024-03-29T03:59:08;4.60;;;1.50;;
76423;SDS011;65257;52.104;4.268;2024-03-29T04:01:34;4.20;;;1.80;;
76423;SDS011;65257;52.104;4.268;2024-03-29T04:04:11;3.20;;;1.05;;
76423;SDS011;65257;52.104;4.268;2024-03-29T04:06:39;4.55;;;1.10;;
76423;SDS011;65257;52.104;4.268;2024-03-29T04:09:05;3.70;;;1.20;;
76423;SDS011;65257;52.104;4.268;2024-03-29T04:11:30;3.00;;;1.35;;
76423;SDS011;65257;52.104;4.268;2024-03-29T04:13:57;2.45;;;1.30;;
76423;SDS011;65257;52.104;4.268;2024-03-29T04:16:26;4.55;;;2.05;;
76423;SDS011;65257;52.104;4.268;2024-03-29T04:18:54;5.03;;;1.20;;
76423;SDS011;65257;52.104;4.268;2024-03-29T04:21:25;1.48;;;0.98;;
76423;SDS011;65257;52.104;4.268;2024-03-29T04:23:51;3.83;;;0.95;;
76423;SDS011;65257;52.104;4.268;2024-03-29T04:26:16;2.15;;;1.02;;
76423;SDS011;65257;52.104;4.268;2024-03-29T04:28:41;2.55;;;1.02;;
76423;SDS011;65257;52.104;4.268;2024-03-29T04:31:07;4.88;;;1.30;;
76423;SDS011;65257;52.104;4.268;2024-03-29T04:33:32;3.53;;;1.50;;
76423;SDS011;65257;52.104;4.268;2024-03-29T04:36:04;2.92;;;1.13;;
76423;SDS011;65257;52.104;4.268;2024-03-29T04:38:30;2.25;;;0.73;;
76423;SDS011;65257;52.104;4.268;2024-03-29T04:40:57;2.90;;;1.08;;
76423;SDS011;65257;52.104;4.268;2024-03-29T04:43:24;3.42;;;1.13;;
76423;SDS011;65257;52.104;4.268;2024-03-29T04:46:09;1.58;;;0.65;;
76423;SDS011;65257;52.104;4.268;2024-03-29T04:48:42;1.02;;;0.60;;
76423;SDS011;65257;52.104;4.268;2024-03-29T04:51:08;1.85;;;0.70;;
76423;SDS011;65257;52.104;4.268;2024-03-29T04:53:37;2.05;;;0.77;;
76423;SDS011;65257;52.104;4.268;2024-03-29T04:56:06;2.97;;;0.82;;
76423;SDS011;65257;52.104;4.268;2024-03-29T04:58:32;22.35;;;2.42;;
76423;SDS011;65257;52.104;4.268;2024-03-29T05:00:58;2.72;;;0.82;;
76423;SDS011;65257;52.104;4.268;2024-03-29T05:03:24;2.53;;;0.70;;
76423;SDS011;65257;52.104;4.268;2024-03-29T05:05:50;2.97;;;0.63;;
76423;SDS011;65257;52.104;4.268;2024-03-29T05:08:17;2.03;;;0.57;;
76423;SDS011;65257;52.104;4.268;2024-03-29T05:10:47;5.97;;;1.27;;
76423;SDS011;65257;52.104;4.268;2024-03-29T05:13:19;1.15;;;0.70;;
76423;SDS011;65257;52.104;4.268;2024-03-29T05:15:47;1.13;;;0.65;;
76423;SDS011;65257;52.104;4.268;2024-03-29T05:18:13;2.88;;;0.70;;
76423;SDS011;65257;52.104;4.268;2024-03-29T05:20:39;1.63;;;0.70;;
76423;SDS011;65257;52.104;4.268;2024-03-29T05:23:09;2.30;;;0.90;;
76423;SDS011;65257;52.104;4.268;2024-03-29T05:25:34;1.42;;;0.90;;
76423;SDS011;65257;52.104;4.268;2024-03-29T05:28:00;1.38;;;0.82;;
76423;SDS011;65257;52.104;4.268;2024-03-29T05:30:26;1.95;;;1.05;;
76423;SDS011;65257;52.104;4.268;2024-03-29T05:32:57;1.65;;;0.70;;
76423;SDS011;65257;52.104;4.268;2024-03-29T05:35:22;1.52;;;0.90;;
76423;SDS011;65257;52.104;4.268;2024-03-29T05:37:48;1.80;;;0.85;;
76423;SDS011;65257;52.104;4.268;2024-03-29T05:40:18;2.15;;;0.88;;
76423;SDS011;65257;52.104;4.268;2024-03-29T05:42:44;1.58;;;0.70;;
76423;SDS011;65257;52.104;4.268;2024-03-29T05:45:21;1.38;;;0.88;;
76423;SDS011;65257;52.104;4.268;2024-03-29T05:47:52;0.40;;;0.40;;
76423;SDS011;65257;52.104;4.268;2024-03-29T05:50:18;6.13;;;0.73;;
76423;SDS011;65257;52.104;4.268;2024-03-29T05:52:53;2.42;;;0.80;;
76423;SDS011;65257;52.104;4.268;2024-03-29T05:55:18;1.40;;;0.68;;
76423;SDS011;65257;52.104;4.268;2024-03-29T05:57:48;1.17;;;0.98;;
76423;SDS011;65257;52.104;4.268;2024-03-29T06:00:13;3.67;;;0.85;;
76423;SDS011;65257;52.104;4.268;2024-03-29T06:02:39;1.40;;;0.80;;
76423;SDS011;65257;52.104;4.268;2024-03-29T06:05:12;4.50;;;1.02;;
76423;SDS011;65257;52.104;4.268;2024-03-29T06:07:38;2.20;;;1.15;;
76423;SDS011;65257;52.104;4.268;2024-03-29T06:10:04;1.75;;;1.15;;
76423;SDS011;65257;52.104;4.268;2024-03-29T06:12:33;6.22;;;1.23;;
76423;SDS011;65257;52.104;4.268;2024-03-29T06:15:00;3.20;;;1.13;;
76423;SDS011;65257;52.104;4.268;2024-03-29T06:17:43;1.27;;;0.75;;
76423;SDS011;65257;52.104;4.268;2024-03-29T06:20:10;4.07;;;1.92;;
76423;SDS011;65257;52.104;4.268;2024-03-29T06:22:39;2.53;;;1.10;;
76423;SDS011;65257;52.104;4.268;2024-03-29T06:25:05;2.67;;;1.25;;
76423;SDS011;65257;52.104;4.268;2024-03-29T06:27:41;3.10;;;1.20;;
76423;SDS011;65257;52.104;4.268;2024-03-29T06:30:28;2.70;;;1.13;;
76423;SDS011;65257;52.104;4.268;2024-03-29T06:32:53;1.20;;;0.80;;
76423;SDS011;65257;52.104;4.268;2024-03-29T06:35:19;2.10;;;1.38;;
76423;SDS011;65257;52.104;4.268;2024-03-29T06:37:47;1.73;;;1.13;;
76423;SDS011;65257;52.104;4.268;2024-03-29T06:40:12;2.38;;;1.25;;
76423;SDS011;65257;52.104;4.268;2024-03-29T06:42:38;7.20;;;1.65;;
76423;SDS011;65257;52.104;4.268;2024-03-29T06:45:06;5.20;;;1.80;;
76423;SDS011;65257;52.104;4.268;2024-03-29T06:47:44;3.63;;;1.75;;
76423;SDS011;65257;52.104;4.268;2024-03-29T06:50:09;3.40;;;1.60;;
76423;SDS011;65257;52.104;4.268;2024-03-29T06:52:34;3.25;;;1.65;;
76423;SDS011;65257;52.104;4.268;2024-03-29T06:55:20;3.50;;;1.30;;
76423;SDS011;65257;52.104;4.268;2024-03-29T06:57:48;3.22;;;1.85;;
76423;SDS011;65257;52.104;4.268;2024-03-29T07:00:17;3.88;;;1.63;;
76423;SDS011;65257;52.104;4.268;2024-03-29T07:02:42;4.93;;;1.75;;
76423;SDS011;65257;52.104;4.268;2024-03-29T07:05:08;4.13;;;1.42;;
76423;SDS011;65257;52.104;4.268;2024-03-29T07:07:36;3.58;;;1.73;;
76423;SDS011;65257;52.104;4.268;2024-03-29T07:10:05;1.90;;;1.42;;
76423;SDS011;65257;52.104;4.268;2024-03-29T07:12:33;4.88;;;1.92;;
76423;SDS011;65257;52.104;4.268;2024-03-29T07:15:07;3.30;;;1.45;;
76423;SDS011;65257;52.104;4.268;2024-03-29T07:17:32;4.32;;;1.95;;
76423;SDS011;65257;52.104;4.268;2024-03-29T07:19:58;3.15;;;1.67;;
76423;SDS011;65257;52.104;4.268;2024-03-29T07:22:24;3.97;;;1.80;;
76423;SDS011;65257;52.104;4.268;2024-03-29T07:24:50;4.20;;;1.73;;
76423;SDS011;65257;52.104;4.268;2024-03-29T07:27:20;4.65;;;2.00;;
76423;SDS011;65257;52.104;4.268;2024-03-29T07:29:51;2.70;;;1.70;;
76423;SDS011;65257;52.104;4.268;2024-03-29T07:32:19;5.25;;;2.00;;
76423;SDS011;65257;52.104;4.268;2024-03-29T07:34:45;7.50;;;2.00;;
76423;SDS011;65257;52.104;4.268;2024-03-29T07:37:13;3.65;;;1.70;;
76423;SDS011;65257;52.104;4.268;2024-03-29T07:39:41;3.20;;;1.65;;
76423;SDS011;65257;52.104;4.268;2024-03-29T07:42:07;4.00;;;1.88;;
76423;SDS011;65257;52.104;4.268;2024-03-29T07:44:33;3.17;;;1.80;;
76423;SDS011;65257;52.104;4.268;2024-03-29T07:46:59;3.75;;;1.75;;
76423;SDS011;65257;52.104;4.268;2024-03-29T07:49:24;3.50;;;1.67;;
76423;SDS011;65257;52.104;4.268;2024-03-29T07:51:50;3.00;;;1.52;;
76423;SDS011;65257;52.104;4.268;2024-03-29T07:54:15;4.38;;;1.60;;
76423;SDS011;65257;52.104;4.268;2024-03-29T07:56:41;2.80;;;1.42;;
76423;SDS011;65257;52.104;4.268;2024-03-29T07:59:09;4.68;;;1.80;;
76423;SDS011;65257;52.104;4.268;2024-03-29T08:01:37;3.00;;;1.58;;
76423;SDS011;65257;52.104;4.268;2024-03-29T08:04:02;6.72;;;2.15;;
76423;SDS011;65257;52.104;4.268;2024-03-29T08:06:28;3.08;;;1.60;;
76423;SDS011;65257;52.104;4.268;2024-03-29T08:08:55;3.67;;;1.50;;
76423;SDS011;65257;52.104;4.268;2024-03-29T08:11:29;3.72;;;1.67;;
76423;SDS011;65257;52.104;4.268;2024-03-29T08:13:57;4.20;;;1.70;;
76423;SDS011;65257;52.104;4.268;2024-03-29T08:16:23;3.42;;;1.75;;
76423;SDS011;65257;52.104;4.268;2024-03-29T08:18:48;3.22;;;1.58;;
76423;SDS011;65257;52.104;4.268;2024-03-29T08:21:14;2.28;;;1.35;;
76423;SDS011;65257;52.104;4.268;2024-03-29T08:23:40;2.33;;;1.33;;
76423;SDS011;65257;52.104;4.268;2024-03-29T08:26:06;2.50;;;1.50;;
76423;SDS011;65257;52.104;4.268;2024-03-29T08:28:34;3.08;;;1.50;;
76423;SDS011;65257;52.104;4.268;2024-03-29T08:31:06;2.50;;;1.60;;
76423;SDS011;65257;52.104;4.268;2024-03-29T08:33:35;1.75;;;1.38;;
76423;SDS011;65257;52.104;4.268;2024-03-29T08:36:11;1.67;;;1.30;;
76423;SDS011;65257;52.104;4.268;2024-03-29T08:38:37;3.00;;;1.48;;
76423;SDS011;65257;52.104;4.268;2024-03-29T08:41:06;2.72;;;1.33;;
76423;SDS011;65257;52.104;4.268;2024-03-29T08:43:31;3.28;;;1.60;;
76423;SDS011;65257;52.104;4.268;2024-03-29T08:45:57;3.00;;;1.67;;
76423;SDS011;65257;52.104;4.268;2024-03-29T08:48:29;3.70;;;1.60;;
76423;SDS011;65257;52.104;4.268;2024-03-29T08:50:54;3.70;;;1.67;;
76423;SDS011;65257;52.104;4.268;2024-03-29T08:53:20;2.08;;;1.30;;
76423;SDS011;65257;52.104;4.268;2024-03-29T08:55:50;2.85;;;1.58;;
76423;SDS011;65257;52.104;4.268;2024-03-29T08:58:16;2.30;;;1.45;;
76423;SDS011;65257;52.104;4.268;2024-03-29T09:00:42;2.92;;;1.80;;
76423;SDS011;65257;52.104;4.268;2024-03-29T09:03:08;4.35;;;1.27;;
76423;SDS011;65257;52.104;4.268;2024-03-29T09:05:33;2.20;;;1.30;;
76423;SDS011;65257;52.104;4.268;2024-03-29T09:07:59;3.80;;;1.35;;
76423;SDS011;65257;52.104;4.268;2024-03-29T09:10:25;3.00;;;1.52;;
76423;SDS011;65257;52.104;4.268;2024-03-29T09:12:53;3.60;;;1.67;;
76423;SDS011;65257;52.104;4.268;2024-03-29T09:15:19;3.40;;;1.80;;
76423;SDS011;65257;52.104;4.268;2024-03-29T09:17:44;2.65;;;1.60;;
76423;SDS011;65257;52.104;4.268;2024-03-29T09:20:11;2.72;;;1.42;;
76423;SDS011;65257;52.104;4.268;2024-03-29T09:22:37;4.22;;;1.70;;
76423;SDS011;65257;52.104;4.268;2024-03-29T09:25:07;3.08;;;1.80;;
76423;SDS011;65257;52.104;4.268;2024-03-29T09:27:36;3.92;;;1.60;;
76423;SDS011;65257;52.104;4.268;2024-03-29T09:30:02;4.15;;;1.90;;
76423;SDS011;65257;52.104;4.268;2024-03-29T09:32:30;4.40;;;1.75;;
76423;SDS011;65257;52.104;4.268;2024-03-29T09:34:56;4.00;;;2.05;;
76423;SDS011;65257;52.104;4.268;2024-03-29T09:37:21;3.60;;;2.15;;
76423;SDS011;65257;52.104;4.268;2024-03-29T09:39:48;3.65;;;2.00;;
76423;SDS011;65257;52.104;4.268;2024-03-29T09:42:15;3.10;;;1.70;;
76423;SDS011;65257;52.104;4.268;2024-03-29T09:47:12;2.90;;;1.70;;
76423;SDS011;65257;52.104;4.268;2024-03-29T09:49:39;2.90;;;1.63;;
76423;SDS011;65257;52.104;4.268;2024-03-29T09:52:09;2.95;;;1.67;;
76423;SDS011;65257;52.104;4.268;2024-03-29T09:54:35;2.50;;;1.65;;
76423;SDS011;65257;52.104;4.268;2024-03-29T09:57:03;3.20;;;1.73;;
76423;SDS011;65257;52.104;4.268;2024-03-29T09:59:33;2.67;;;1.33;;
76423;SDS011;65257;52.104;4.268;2024-03-29T10:01:59;1.92;;;1.30;;
76423;SDS011;65257;52.104;4.268;2024-03-29T10:04:29;3.05;;;1.63;;
76423;SDS011;65257;52.104;4.268;2024-03-29T10:06:58;2.53;;;1.58;;
76423;SDS011;65257;52.104;4.268;2024-03-29T10:09:23;1.95;;;1.20;;
76423;SDS011;65257;52.104;4.268;2024-03-29T10:11:57;3.30;;;1.80;;
76423;SDS011;65257;52.104;4.268;2024-03-29T10:14:22;3.88;;;1.88;;
76423;SDS011;65257;52.104;4.268;2024-03-29T10:16:52;3.47;;;2.00;;
76423;SDS011;65257;52.104;4.268;2024-03-29T10:19:17;3.90;;;2.30;;
76423;SDS011;65257;52.104;4.268;2024-03-29T10:24:11;4.22;;;2.35;;
76423;SDS011;65257;52.104;4.268;2024-03-29T10:26:40;5.30;;;2.50;;
76423;SDS011;65257;52.104;4.268;2024-03-29T10:29:06;3.33;;;2.40;;
76423;SDS011;65257;52.104;4.268;2024-03-29T10:31:35;2.90;;;2.25;;
76423;SDS011;65257;52.104;4.268;2024-03-29T10:34:04;3.88;;;2.67;;
76423;SDS011;65257;52.104;4.268;2024-03-29T10:36:36;4.45;;;2.30;;
76423;SDS011;65257;52.104;4.268;2024-03-29T10:39:02;4.65;;;2.75;;
76423;SDS011;65257;52.104;4.268;2024-03-29T10:41:41;3.95;;;2.88;;
76423;SDS011;65257;52.104;4.268;2024-03-29T10:44:11;3.42;;;3.13;;
76423;SDS011;65257;52.104;4.268;2024-03-29T10:46:40;3.35;;;2.80;;
76423;SDS011;65257;52.104;4.268;2024-03-29T10:49:07;4.10;;;2.58;;
76423;SDS011;65257;52.104;4.268;2024-03-29T10:51:42;3.05;;;2.08;;
76423;SDS011;65257;52.104;4.268;2024-03-29T10:54:08;4.03;;;2.75;;
76423;SDS011;65257;52.104;4.268;2024-03-29T10:56:38;4.00;;;2.67;;
76423;SDS011;65257;52.104;4.268;2024-03-29T11:01:52;3.22;;;1.90;;
76423;SDS011;65257;52.104;4.268;2024-03-29T11:04:27;3.50;;;2.22;;
76423;SDS011;65257;52.104;4.268;2024-03-29T11:07:06;4.70;;;2.70;;
76423;SDS011;65257;52.104;4.268;2024-03-29T11:09:44;3.40;;;2.40;;
76423;SDS011;65257;52.104;4.268;2024-03-29T11:12:15;3.17;;;2.50;;
76423;SDS011;65257;52.104;4.268;2024-03-29T11:14:45;4.25;;;2.78;;
76423;SDS011;65257;52.104;4.268;2024-03-29T11:17:17;4.13;;;2.55;;
76423;SDS011;65257;52.104;4.268;2024-03-29T11:19:46;4.85;;;2.80;;
76423;SDS011;65257;52.104;4.268;2024-03-29T11:22:15;3.20;;;2.63;;
76423;SDS011;65257;52.104;4.268;2024-03-29T11:24:44;4.93;;;2.63;;
76423;SDS011;65257;52.104;4.268;2024-03-29T11:27:10;4.95;;;2.47;;
76423;SDS011;65257;52.104;4.268;2024-03-29T11:29:41;4.75;;;2.60;;
76423;SDS011;65257;52.104;4.268;2024-03-29T11:32:10;5.30;;;2.60;;
76423;SDS011;65257;52.104;4.268;2024-03-29T11:34:42;5.85;;;2.63;;
76423;SDS011;65257;52.104;4.268;2024-03-29T11:37:12;3.65;;;2.83;;
76423;SDS011;65257;52.104;4.268;2024-03-29T11:39:38;3.65;;;2.42;;
76423;SDS011;65257;52.104;4.268;2024-03-29T11:42:08;4.85;;;2.65;;
76423;SDS011;65257;52.104;4.268;2024-03-29T11:44:34;5.78;;;2.60;;
76423;SDS011;65257;52.104;4.268;2024-03-29T11:47:00;4.55;;;2.72;;
76423;SDS011;65257;52.104;4.268;2024-03-29T11:49:31;4.10;;;2.40;;
76423;SDS011;65257;52.104;4.268;2024-03-29T11:52:06;5.93;;;2.50;;
76423;SDS011;65257;52.104;4.268;2024-03-29T11:54:38;3.83;;;2.42;;
76423;SDS011;65257;52.104;4.268;2024-03-29T11:57:04;3.38;;;2.53;;
76423;SDS011;65257;52.104;4.268;2024-03-29T11:59:30;3.50;;;2.38;;
76423;SDS011;65257;52.104;4.268;2024-03-29T12:01:56;4.03;;;2.30;;
76423;SDS011;65257;52.104;4.268;2024-03-29T12:04:23;3.25;;;2.22;;
76423;SDS011;65257;52.104;4.268;2024-03-29T12:06:49;9.43;;;2.63;;
76423;SDS011;65257;52.104;4.268;2024-03-29T12:09:21;4.38;;;2.83;;
76423;SDS011;65257;52.104;4.268;2024-03-29T12:11:47;3.97;;;3.08;;
76423;SDS011;65257;52.104;4.268;2024-03-29T12:14:17;4.38;;;2.38;;
76423;SDS011;65257;52.104;4.268;2024-03-29T12:16:45;3.95;;;2.22;;
76423;SDS011;65257;52.104;4.268;2024-03-29T12:19:21;3.30;;;1.85;;
76423;SDS011;65257;52.104;4.268;2024-03-29T12:21:47;3.85;;;2.35;;
76423;SDS011;65257;52.104;4.268;2024-03-29T12:24:13;3.15;;;2.08;;
76423;SDS011;65257;52.104;4.268;2024-03-29T12:26:39;3.78;;;2.13;;
76423;SDS011;65257;52.104;4.268;2024-03-29T12:29:06;5.10;;;2.47;;
76423;SDS011;65257;52.104;4.268;2024-03-29T12:31:32;3.63;;;2.28;;
76423;SDS011;65257;52.104;4.268;2024-03-29T12:33:57;4.35;;;2.50;;
76423;SDS011;65257;52.104;4.268;2024-03-29T12:36:24;4.65;;;2.10;;
76423;SDS011;65257;52.104;4.268;2024-03-29T12:38:58;5.35;;;2.28;;
76423;SDS011;65257;52.104;4.268;2024-03-29T12:41:31;4.65;;;2.53;;
76423;SDS011;65257;52.104;4.268;2024-03-29T12:43:57;5.10;;;2.63;;
76423;SDS011;65257;52.104;4.268;2024-03-29T12:46:24;3.88;;;2.42;;
76423;SDS011;65257;52.104;4.268;2024-03-29T12:48:58;4.95;;;2.42;;
76423;SDS011;65257;52.104;4.268;2024-03-29T12:51:27;4.93;;;2.40;;
76423;SDS011;65257;52.104;4.268;2024-03-29T12:53:54;5.00;;;2.13;;
76423;SDS011;65257;52.104;4.268;2024-03-29T12:56:21;3.10;;;1.90;;
76423;SDS011;65257;52.104;4.268;2024-03-29T12:58:46;4.03;;;2.35;;
76423;SDS011;65257;52.104;4.268;2024-03-29T13:01:12;3.65;;;2.00;;
76423;SDS011;65257;52.104;4.268;2024-03-29T13:03:37;6.10;;;2.35;;
76423;SDS011;65257;52.104;4.268;2024-03-29T13:06:03;5.35;;;2.13;;
76423;SDS011;65257;52.104;4.268;2024-03-29T13:08:29;4.35;;;2.20;;
76423;SDS011;65257;52.104;4.268;2024-03-29T13:10:54;3.35;;;2.10;;
76423;SDS011;65257;52.104;4.268;2024-03-29T13:13:20;6.10;;;2.20;;
76423;SDS011;65257;52.104;4.268;2024-03-29T13:15:46;3.67;;;2.38;;
76423;SDS011;65257;52.104;4.268;2024-03-29T13:18:12;6.65;;;2.13;;
76423;SDS011;65257;52.104;4.268;2024-03-29T13:20:40;4.20;;;2.10;;
76423;SDS011;65257;52.104;4.268;2024-03-29T13:23:07;4.68;;;2.05;;
76423;SDS011;65257;52.104;4.268;2024-03-29T13:25:33;4.90;;;1.83;;
76423;SDS011;65257;52.104;4.268;2024-03-29T13:27:59;5.30;;;2.25;;
76423;SDS011;65257;52.104;4.268;2024-03-29T13:30:25;2.95;;;1.95;;
76423;SDS011;65257;52.104;4.268;2024-03-29T13:32:52;4.53;;;1.77;;
76423;SDS011;65257;52.104;4.268;2024-03-29T13:35:18;2.83;;;1.67;;
76423;SDS011;65257;52.104;4.268;2024-03-29T13:37:47;5.03;;;2.30;;
76423;SDS011;65257;52.104;4.268;2024-03-29T13:40:15;6.35;;;2.50;;
76423;SDS011;65257;52.104;4.268;2024-03-29T13:42:44;4.93;;;2.33;;
76423;SDS011;65257;52.104;4.268;2024-03-29T13:45:10;5.15;;;2.15;;
76423;SDS011;65257;52.104;4.268;2024-03-29T13:47:41;4.72;;;2.10;;
76423;SDS011;65257;52.104;4.268;2024-03-29T13:50:07;4.93;;;2.13;;
76423;SDS011;65257;52.104;4.268;2024-03-29T13:52:34;9.52;;;2.70;;
76423;SDS011;65257;52.104;4.268;2024-03-29T13:55:00;4.07;;;2.35;;
76423;SDS011;65257;52.104;4.268;2024-03-29T13:57:26;4.88;;;2.50;;
76423;SDS011;65257;52.104;4.268;2024-03-29T13:59:51;4.38;;;1.98;;
76423;SDS011;65257;52.104;4.268;2024-03-29T14:02:18;4.15;;;2.13;;
76423;SDS011;65257;52.104;4.268;2024-03-29T14:04:44;4.47;;;2.20;;
76423;SDS011;65257;52.104;4.268;2024-03-29T14:07:14;4.78;;;2.60;;
76423;SDS011;65257;52.104;4.268;2024-03-29T14:09:40;3.70;;;2.05;;
76423;SDS011;65257;52.104;4.268;2024-03-29T14:12:09;4.22;;;2.13;;
76423;SDS011;65257;52.104;4.268;2024-03-29T14:14:38;5.60;;;2.30;;
76423;SDS011;65257;52.104;4.268;2024-03-29T14:17:04;4.18;;;2.30;;
76423;SDS011;65257;52.104;4.268;2024-03-29T14:19:32;3.78;;;2.20;;
76423;SDS011;65257;52.104;4.268;2024-03-29T14:21:59;7.28;;;2.40;;
76423;SDS011;65257;52.104;4.268;2024-03-29T14:24:27;3.67;;;2.17;;
76423;SDS011;65257;52.104;4.268;2024-03-29T14:26:55;3.15;;;1.90;;
76423;SDS011;65257;52.104;4.268;2024-03-29T14:29:21;5.55;;;2.33;;
76423;SDS011;65257;52.104;4.268;2024-03-29T14:31:47;4.22;;;2.17;;
76423;SDS011;65257;52.104;4.268;2024-03-29T14:34:13;5.55;;;2.60;;
76423;SDS011;65257;52.104;4.268;2024-03-29T14:36:42;4.30;;;2.03;;
76423;SDS011;65257;52.104;4.268;2024-03-29T14:39:10;7.88;;;2.40;;
76423;SDS011;65257;52.104;4.268;2024-03-29T14:41:40;3.53;;;1.95;;
76423;SDS011;65257;52.104;4.268;2024-03-29T14:44:06;2.67;;;1.80;;
76423;SDS011;65257;52.104;4.268;2024-03-29T14:46:33;6.78;;;1.92;;
76423;SDS011;65257;52.104;4.268;2024-03-29T14:49:02;3.17;;;1.70;;
76423;SDS011;65257;52.104;4.268;2024-03-29T14:51:32;2.72;;;1.70;;
76423;SDS011;65257;52.104;4.268;2024-03-29T14:54:01;3.10;;;2.10;;
76423;SDS011;65257;52.104;4.268;2024-03-29T14:56:29;6.00;;;1.83;;
76423;SDS011;65257;52.104;4.268;2024-03-29T15:01:26;6.45;;;2.67;;
76423;SDS011;65257;52.104;4.268;2024-03-29T15:03:51;3.72;;;1.77;;
76423;SDS011;65257;52.104;4.268;2024-03-29T15:06:18;3.03;;;1.75;;